logo
Rechercher aéroport 
image banner adimage banner adimage banner ad
image banner ad

CL45 - North Net Training Authority

Situé à Anaheim, United States

ICAO - CL45, IATA -

Données fournies par Airmate  

Information générale

Coordonnées: N33°47'42" W117°52'52"
Élévation : 145 feet MSL.
Variation magnétique : 14° East
Voir autres Aéroports à California

Données opérationnelles

Special qualification required
Heure actuelle UTC:
Heure actuelle locale:
Météo à : KFUL - Fullerton Muni ( 13 km )
METAR: KFUL 261453Z 00000KT 10SM FEW120 22/14 A2991 RMK AO2 SLP128 T02220139 53010
Voir NOTAMs / SUP AIP / TFR affectant cet aéroport [VIEW]
Fréquences de communication: [VIEW]

Pistes:

Coordonnées de l'aéroport

Adresse: Anaheim United States

Vue satellite de CL45